createdAt,value
2018-07-03T00:00:43.338Z,47.86
2018-07-03T00:01:33.548Z,47.81
2018-07-03T00:02:33.380Z,47.86
2018-07-03T00:03:33.539Z,47.72
2018-07-03T00:04:33.316Z,47.74
2018-07-03T00:05:33.354Z,47.7
2018-07-03T00:06:33.413Z,47.78
2018-07-03T00:07:33.548Z,47.87
2018-07-03T00:08:33.445Z,47.78
2018-07-03T00:09:33.317Z,47.81
2018-07-03T00:10:33.632Z,47.71
2018-07-03T00:11:33.386Z,47.85
2018-07-03T00:12:33.421Z,47.8
2018-07-03T00:13:33.420Z,47.71
2018-07-03T00:14:33.289Z,47.81
2018-07-03T00:15:33.417Z,47.85
2018-07-03T00:16:33.308Z,47.94
2018-07-03T00:17:33.375Z,47.94
2018-07-03T00:18:33.418Z,47.87
2018-07-03T00:19:33.546Z,47.81
2018-07-03T00:20:33.556Z,47.94
2018-07-03T00:21:33.445Z,47.86
2018-07-03T00:22:33.448Z,47.86
2018-07-03T00:23:33.268Z,47.82
2018-07-03T00:24:33.328Z,47.71
2018-07-03T00:25:33.472Z,47.89
2018-07-03T00:26:33.394Z,47.88
2018-07-03T00:27:33.381Z,47.73
2018-07-03T00:28:33.241Z,47.86
2018-07-03T00:29:33.459Z,47.83
2018-07-03T00:30:33.467Z,47.84
2018-07-03T00:31:33.480Z,47.88
2018-07-03T00:32:33.258Z,47.83
2018-07-03T00:33:33.324Z,47.83
2018-07-03T00:34:33.685Z,47.84
2018-07-03T00:35:33.443Z,47.81
2018-07-03T00:36:33.359Z,47.82
2018-07-03T00:37:33.551Z,47.75
2018-07-03T00:38:33.491Z,47.92
2018-07-03T00:39:33.454Z,47.83
2018-07-03T00:40:33.392Z,47.94
2018-07-03T00:41:33.520Z,47.81
2018-07-03T00:42:33.407Z,47.87
2018-07-03T00:43:33.240Z,47.84
2018-07-03T00:44:33.276Z,47.94
2018-07-03T00:45:33.393Z,47.88
2018-07-03T00:46:33.460Z,47.84
2018-07-03T00:47:33.322Z,47.91
2018-07-03T00:48:33.642Z,47.9
2018-07-03T00:49:33.494Z,47.86
2018-07-03T00:50:33.639Z,47.87
2018-07-03T00:51:33.315Z,47.88
2018-07-03T00:52:33.327Z,47.93
2018-07-03T00:53:33.327Z,47.85
2018-07-03T00:54:33.301Z,47.9
2018-07-03T00:55:33.457Z,47.85
2018-07-03T00:56:33.376Z,47.83
2018-07-03T00:57:33.527Z,47.84
2018-07-03T00:58:33.407Z,47.86
2018-07-03T00:59:33.370Z,47.82
2018-07-03T01:00:33.339Z,47.91
2018-07-03T01:01:33.468Z,47.9
2018-07-03T01:02:33.521Z,47.85
2018-07-03T01:03:33.269Z,47.9
2018-07-03T01:04:33.448Z,47.89
2018-07-03T01:05:33.416Z,47.86
2018-07-03T01:06:33.291Z,47.86
2018-07-03T01:07:33.465Z,47.94
2018-07-03T01:08:33.298Z,47.92
2018-07-03T01:09:33.466Z,47.92
2018-07-03T01:10:33.270Z,47.87
2018-07-03T01:11:33.244Z,47.85
2018-07-03T01:12:33.295Z,47.92
2018-07-03T01:13:33.267Z,47.95
2018-07-03T01:14:33.303Z,47.85
2018-07-03T01:15:33.439Z,48.03
2018-07-03T01:16:33.362Z,47.92
2018-07-03T01:17:33.399Z,47.77
2018-07-03T01:18:33.484Z,47.88
2018-07-03T01:19:33.455Z,47.83
2018-07-03T01:20:33.305Z,47.96
2018-07-03T01:21:33.277Z,47.97
2018-07-03T01:22:33.391Z,47.83
2018-07-03T01:23:33.453Z,47.81
2018-07-03T01:24:33.452Z,47.9
2018-07-03T01:25:33.607Z,47.87
2018-07-03T01:26:33.602Z,47.81
2018-07-03T01:27:33.583Z,47.91
2018-07-03T01:28:33.395Z,47.79
2018-07-03T01:29:33.296Z,47.88
2018-07-03T01:30:33.429Z,47.89
2018-07-03T01:31:33.349Z,47.83
2018-07-03T01:32:33.254Z,47.84
2018-07-03T01:33:33.275Z,47.84
2018-07-03T01:34:33.230Z,47.96
2018-07-03T01:35:33.276Z,47.89
2018-07-03T01:36:33.597Z,47.96
2018-07-03T01:37:33.386Z,47.92
2018-07-03T01:38:33.537Z,47.9
2018-07-03T01:39:33.371Z,47.95
2018-07-03T01:40:33.417Z,47.84
2018-07-03T01:41:33.254Z,47.89
2018-07-03T01:42:33.473Z,47.9
2018-07-03T01:43:33.503Z,47.84
2018-07-03T01:44:33.599Z,47.88
2018-07-03T01:45:33.323Z,48
2018-07-03T01:46:33.392Z,47.95
2018-07-03T01:47:33.529Z,47.95
2018-07-03T01:48:33.387Z,47.92
2018-07-03T01:49:33.297Z,47.96
2018-07-03T01:50:33.521Z,47.81
2018-07-03T01:51:33.451Z,47.86
2018-07-03T01:52:33.466Z,47.92
2018-07-03T01:53:33.410Z,47.95
2018-07-03T01:54:33.618Z,47.85
2018-07-03T01:55:33.377Z,47.89
2018-07-03T01:56:33.231Z,47.86
2018-07-03T01:57:33.506Z,47.82
2018-07-03T01:58:33.315Z,47.92
2018-07-03T01:59:33.460Z,47.86
2018-07-03T02:00:33.379Z,47.82
2018-07-03T02:01:33.260Z,47.95
2018-07-03T02:02:33.458Z,47.96
2018-07-03T02:03:33.434Z,47.82
2018-07-03T02:04:33.274Z,47.92
2018-07-03T02:05:33.383Z,47.9
2018-07-03T02:06:33.679Z,47.93
2018-07-03T02:07:33.268Z,47.85
2018-07-03T02:08:33.262Z,47.95
2018-07-03T02:09:33.302Z,47.89
2018-07-03T02:10:33.203Z,47.92
2018-07-03T02:11:33.530Z,47.91
2018-07-03T02:12:33.521Z,48.11
2018-07-03T02:13:33.635Z,47.86
2018-07-03T02:14:33.597Z,47.96
2018-07-03T02:15:33.517Z,47.78
2018-07-03T02:16:33.546Z,47.95
2018-07-03T02:17:33.259Z,47.89
2018-07-03T02:18:33.317Z,48
2018-07-03T02:19:33.497Z,47.92
2018-07-03T02:20:33.404Z,47.9
2018-07-03T02:21:33.274Z,47.84
2018-07-03T02:22:33.281Z,47.97
2018-07-03T02:23:33.319Z,47.86
2018-07-03T02:24:33.289Z,47.94
2018-07-03T02:25:33.454Z,47.99
2018-07-03T02:26:33.532Z,48.02
2018-07-03T02:27:33.398Z,47.92
2018-07-03T02:28:33.204Z,47.9
2018-07-03T02:29:33.481Z,47.89
2018-07-03T02:30:33.380Z,47.93
2018-07-03T02:31:33.407Z,47.89
2018-07-03T02:32:33.777Z,47.93
2018-07-03T02:33:33.391Z,47.95
2018-07-03T02:34:33.419Z,47.9
2018-07-03T02:35:33.324Z,47.91
2018-07-03T02:36:33.510Z,47.92
2018-07-03T02:37:33.280Z,47.97
2018-07-03T02:38:33.313Z,47.92
2018-07-03T02:39:33.310Z,47.94
2018-07-03T02:40:33.441Z,47.94
2018-07-03T02:41:33.731Z,47.8
2018-07-03T02:42:33.452Z,47.92
2018-07-03T02:43:33.580Z,47.92
2018-07-03T02:44:33.616Z,48
2018-07-03T02:45:33.519Z,47.93
2018-07-03T02:46:33.301Z,47.89
2018-07-03T02:47:33.239Z,47.83
2018-07-03T02:48:33.403Z,47.91
2018-07-03T02:49:33.555Z,47.93
2018-07-03T02:50:33.371Z,47.88
2018-07-03T02:51:33.403Z,47.9
2018-07-03T02:52:33.439Z,47.93
2018-07-03T02:53:33.267Z,47.89
2018-07-03T02:54:33.633Z,47.95
2018-07-03T02:55:33.223Z,47.82
2018-07-03T02:56:33.226Z,47.92
2018-07-03T02:57:33.390Z,47.97
2018-07-03T02:58:33.299Z,47.96
2018-07-03T02:59:33.516Z,47.94
2018-07-03T03:00:33.511Z,47.96
2018-07-03T03:01:33.288Z,47.89
2018-07-03T03:02:33.487Z,47.88
2018-07-03T03:03:33.473Z,47.87
2018-07-03T03:04:33.393Z,48
2018-07-03T03:05:33.714Z,47.86
2018-07-03T03:06:33.413Z,47.99
2018-07-03T03:07:33.315Z,48.07
2018-07-03T03:08:33.349Z,48
2018-07-03T03:09:33.449Z,47.96
2018-07-03T03:10:33.459Z,48.12
2018-07-03T03:11:33.566Z,47.9
2018-07-03T03:12:33.241Z,47.89
2018-07-03T03:13:33.312Z,48.06
2018-07-03T03:14:33.450Z,47.98
2018-07-03T03:15:33.481Z,47.91
2018-07-03T03:16:33.470Z,47.98
2018-07-03T03:17:33.188Z,47.98
2018-07-03T03:18:33.408Z,48.04
2018-07-03T03:19:33.475Z,47.91
2018-07-03T03:20:33.427Z,47.98
2018-07-03T03:21:33.200Z,48.03
2018-07-03T03:22:33.384Z,47.95
2018-07-03T03:23:33.597Z,48.06
2018-07-03T03:24:33.372Z,47.9
2018-07-03T03:25:33.288Z,48.02
2018-07-03T03:26:33.460Z,47.87
2018-07-03T03:27:33.299Z,47.85
2018-07-03T03:28:33.456Z,48.03
2018-07-03T03:29:33.509Z,47.86
2018-07-03T03:30:33.422Z,48
2018-07-03T03:31:33.277Z,47.95
2018-07-03T03:32:33.454Z,47.88
2018-07-03T03:33:33.307Z,47.92
2018-07-03T03:34:33.391Z,47.95
2018-07-03T03:35:33.428Z,47.9
2018-07-03T03:36:33.298Z,47.91
2018-07-03T03:37:33.297Z,47.88
2018-07-03T03:38:33.314Z,47.94
2018-07-03T03:39:33.405Z,47.9
2018-07-03T03:40:33.182Z,47.92
2018-07-03T03:41:33.275Z,48.01
2018-07-03T03:42:33.281Z,48
2018-07-03T03:43:33.443Z,48
2018-07-03T03:44:33.450Z,48.01
2018-07-03T03:45:33.450Z,47.91
2018-07-03T03:46:33.296Z,48.08
2018-07-03T03:47:33.234Z,47.88
2018-07-03T03:48:33.415Z,47.98
2018-07-03T03:49:33.330Z,47.95
2018-07-03T03:50:33.605Z,48.01
2018-07-03T03:51:33.234Z,47.97
2018-07-03T03:52:33.399Z,47.83
2018-07-03T03:53:33.388Z,47.98
2018-07-03T03:54:33.494Z,47.96
2018-07-03T03:55:33.418Z,47.95
2018-07-03T03:56:33.357Z,48.01
2018-07-03T03:57:33.268Z,47.88
2018-07-03T03:58:43.402Z,48.02
2018-07-03T03:59:33.429Z,48.09
2018-07-03T04:00:33.406Z,48.04
2018-07-03T04:01:33.398Z,48.04
2018-07-03T04:02:33.286Z,48.04
2018-07-03T04:03:33.242Z,47.95
2018-07-03T04:04:33.291Z,47.99
2018-07-03T04:05:33.217Z,48.06
2018-07-03T04:06:33.442Z,47.99
2018-07-03T04:07:33.577Z,47.98
2018-07-03T04:08:33.329Z,47.95
2018-07-03T04:09:33.434Z,47.97
2018-07-03T04:10:33.352Z,48.02
2018-07-03T04:11:33.456Z,48.07
2018-07-03T04:12:33.265Z,47.98
2018-07-03T04:13:33.463Z,48.04
2018-07-03T04:14:33.327Z,48.19
2018-07-03T04:15:33.246Z,48.01
2018-07-03T04:16:33.349Z,48.05
2018-07-03T04:17:33.242Z,48.03
2018-07-03T04:18:33.311Z,48.02
2018-07-03T04:19:33.285Z,47.97
2018-07-03T04:20:33.439Z,48.15
2018-07-03T04:21:33.186Z,48.04
2018-07-03T04:22:33.332Z,48.13
2018-07-03T04:23:33.326Z,48.09
2018-07-03T04:24:33.401Z,48
2018-07-03T04:25:33.369Z,48.08
2018-07-03T04:26:33.222Z,48.1
2018-07-03T04:27:33.570Z,48.11
2018-07-03T04:28:33.327Z,47.96
2018-07-03T04:29:33.478Z,48.13
2018-07-03T04:30:33.133Z,48.1
2018-07-03T04:31:33.482Z,48.02
2018-07-03T04:32:33.356Z,48.15
2018-07-03T04:33:33.453Z,48.07
2018-07-03T04:34:33.297Z,48.06
2018-07-03T04:35:33.338Z,48.17
2018-07-03T04:36:33.442Z,48.11
2018-07-03T04:37:33.381Z,48.13
2018-07-03T04:38:33.307Z,48.16
2018-07-03T04:39:33.244Z,48.03
2018-07-03T04:40:33.471Z,48.08
2018-07-03T04:41:33.282Z,48.03
2018-07-03T04:42:33.339Z,48.14
2018-07-03T04:43:33.255Z,48.16
2018-07-03T04:44:33.437Z,48.12
2018-07-03T04:45:33.285Z,48.19
2018-07-03T04:46:33.407Z,48.14
2018-07-03T04:47:33.307Z,48.01
2018-07-03T04:48:33.200Z,48.03
2018-07-03T04:49:33.344Z,48.07
2018-07-03T04:50:33.337Z,48.1
2018-07-03T04:51:33.310Z,48.04
2018-07-03T04:52:33.230Z,48.08
2018-07-03T04:53:33.364Z,48.11
2018-07-03T04:54:33.115Z,48
2018-07-03T04:55:33.289Z,48.11
2018-07-03T04:56:33.330Z,48.14
2018-07-03T04:57:33.182Z,48.06
2018-07-03T04:58:33.366Z,48.22
2018-07-03T04:59:33.236Z,48.14
2018-07-03T05:00:33.382Z,48.06
2018-07-03T05:01:33.433Z,48.1
2018-07-03T05:02:33.329Z,48.08
2018-07-03T05:03:33.704Z,48.04
2018-07-03T05:04:33.462Z,48.03
2018-07-03T05:05:33.235Z,48.09
2018-07-03T05:06:33.186Z,48.11
2018-07-03T05:07:33.467Z,48.14
2018-07-03T05:08:33.409Z,48.05
2018-07-03T05:09:33.245Z,48.01
2018-07-03T05:10:33.373Z,48.13
2018-07-03T05:11:33.409Z,48.09
2018-07-03T05:12:33.628Z,48
2018-07-03T05:13:33.397Z,48.03
2018-07-03T05:14:33.347Z,48.15
2018-07-03T05:15:33.317Z,48.12
2018-07-03T05:16:33.760Z,48.1
2018-07-03T05:17:33.600Z,47.98
2018-07-03T05:18:33.525Z,48.07
2018-07-03T05:19:33.314Z,48.13
2018-07-03T05:20:33.277Z,48.1
2018-07-03T05:21:33.162Z,48.08
2018-07-03T05:22:33.283Z,48.12
2018-07-03T05:23:33.357Z,48.03
2018-07-03T05:24:33.202Z,48.01
2018-07-03T05:25:33.204Z,48.02
2018-07-03T05:26:33.291Z,48.09
2018-07-03T05:27:33.363Z,48.08
2018-07-03T05:28:33.275Z,48.08
2018-07-03T05:29:33.299Z,48.16
2018-07-03T05:30:33.453Z,48.03
2018-07-03T05:31:35.946Z,48.04
2018-07-03T05:32:33.355Z,48.09
2018-07-03T05:33:33.303Z,48.11
2018-07-03T05:34:33.347Z,48.12
2018-07-03T05:35:33.666Z,48.11
2018-07-03T05:36:33.255Z,48.19
2018-07-03T05:37:33.408Z,48.11
2018-07-03T05:38:33.266Z,48.12
2018-07-03T05:39:33.388Z,48.12
2018-07-03T05:40:33.484Z,48.11
2018-07-03T05:41:33.377Z,48.02
2018-07-03T05:42:33.474Z,48.12
2018-07-03T05:43:33.795Z,48.17
2018-07-03T05:44:33.430Z,48.15
2018-07-03T05:45:33.519Z,48.09
2018-07-03T05:46:33.396Z,48.17
2018-07-03T05:47:33.440Z,48.23
2018-07-03T05:48:33.385Z,48.14
2018-07-03T05:49:33.357Z,48.12
2018-07-03T05:50:33.451Z,48.04
2018-07-03T05:51:34.163Z,48.08
2018-07-03T05:52:33.344Z,48.13
2018-07-03T05:53:33.358Z,48.13
2018-07-03T05:54:33.720Z,48.18
2018-07-03T05:55:33.244Z,48.19
2018-07-03T05:56:33.626Z,48.16
2018-07-03T05:57:33.272Z,48.19
2018-07-03T05:58:33.321Z,48.17
2018-07-03T05:59:33.475Z,48.16
2018-07-03T06:00:33.156Z,48.23
2018-07-03T06:01:33.342Z,48.13
2018-07-03T06:02:33.360Z,48.15
2018-07-03T06:03:33.299Z,48.08
2018-07-03T06:04:33.314Z,48.12
2018-07-03T06:05:33.239Z,48.15
2018-07-03T06:06:33.268Z,48.13
2018-07-03T06:07:33.268Z,48.14
2018-07-03T06:08:33.177Z,48.22
2018-07-03T06:09:33.259Z,48.17
2018-07-03T06:10:33.370Z,48.09
2018-07-03T06:11:33.223Z,48.2
2018-07-03T06:12:33.405Z,48.1
2018-07-03T06:13:33.324Z,48.14
2018-07-03T06:14:33.537Z,48.14
2018-07-03T06:15:33.618Z,48.15
2018-07-03T06:16:33.383Z,48.19
2018-07-03T06:17:33.619Z,48.08
2018-07-03T06:18:33.376Z,48.09
2018-07-03T06:19:33.345Z,48.18
2018-07-03T06:20:33.403Z,48.17
2018-07-03T06:21:33.257Z,48.22
2018-07-03T06:22:33.215Z,48.12
2018-07-03T06:23:33.310Z,48.09
2018-07-03T06:24:33.454Z,48.07
2018-07-03T06:25:33.779Z,48.19
2018-07-03T06:26:33.491Z,48.09
2018-07-03T06:27:33.423Z,48.1
2018-07-03T06:28:33.387Z,48.1
2018-07-03T06:29:33.212Z,48.16
2018-07-03T06:30:33.305Z,48.11
2018-07-03T06:31:33.286Z,48.21
2018-07-03T06:32:33.550Z,48.16
2018-07-03T06:33:33.218Z,48.16
2018-07-03T06:34:33.328Z,48.21
2018-07-03T06:35:33.592Z,48.15
2018-07-03T06:36:33.134Z,48.13
2018-07-03T06:37:33.519Z,48.22
2018-07-03T06:38:33.352Z,48.2
2018-07-03T06:39:33.454Z,48.15
2018-07-03T06:40:33.178Z,48.23
2018-07-03T06:41:33.281Z,48.23
2018-07-03T06:42:33.491Z,48.05
2018-07-03T06:43:33.235Z,48.18
2018-07-03T06:44:33.426Z,48.1
2018-07-03T06:45:33.336Z,48.15
2018-07-03T06:46:33.873Z,48.27
2018-07-03T06:47:33.239Z,48.23
2018-07-03T06:48:33.619Z,48.23
2018-07-03T06:49:33.468Z,48.16
2018-07-03T06:50:33.378Z,48.2
2018-07-03T06:51:33.904Z,48.21
2018-07-03T06:52:33.225Z,48.26
2018-07-03T06:53:33.307Z,48.18
2018-07-03T06:54:33.219Z,48.21
2018-07-03T06:55:33.270Z,48.25
2018-07-03T06:56:33.384Z,48.15
2018-07-03T06:57:33.414Z,48.08
2018-07-03T06:58:33.300Z,48.22
2018-07-03T06:59:33.220Z,48.32
2018-07-03T07:00:33.303Z,48.24
2018-07-03T07:01:33.171Z,48.24
2018-07-03T07:02:33.420Z,48.19
2018-07-03T07:03:33.387Z,48.34
2018-07-03T07:04:33.312Z,48.24
2018-07-03T07:05:33.187Z,48.15
2018-07-03T07:06:33.407Z,48.25
2018-07-03T07:07:33.389Z,48.27
2018-07-03T07:08:33.539Z,48.21
2018-07-03T07:09:33.562Z,48.28
2018-07-03T07:10:33.404Z,48.35
2018-07-03T07:11:33.318Z,48.2
2018-07-03T07:12:33.257Z,48.24
2018-07-03T07:13:33.275Z,48.25
2018-07-03T07:14:33.192Z,48.3
2018-07-03T07:15:33.290Z,48.26
2018-07-03T07:16:33.325Z,48.24
2018-07-03T07:17:33.428Z,48.23
2018-07-03T07:18:33.163Z,48.27
2018-07-03T07:19:33.391Z,48.19
2018-07-03T07:20:33.264Z,48.21
2018-07-03T07:21:33.271Z,48.37
2018-07-03T07:22:33.140Z,48.15
2018-07-03T07:23:43.343Z,48.17
2018-07-03T07:24:33.383Z,48.28
2018-07-03T07:25:33.649Z,48.19
2018-07-03T07:26:33.495Z,48.21
2018-07-03T07:27:33.169Z,48.32
2018-07-03T07:28:33.141Z,48.26
2018-07-03T07:29:33.309Z,48.29
2018-07-03T07:30:33.203Z,48.18
2018-07-03T07:31:33.272Z,48.22
2018-07-03T07:32:33.260Z,48.17
2018-07-03T07:33:33.457Z,48.21
2018-07-03T07:34:33.361Z,48.21
2018-07-03T07:35:34.072Z,48.23
2018-07-03T07:36:33.680Z,48.19
2018-07-03T07:37:33.182Z,48.26
2018-07-03T07:38:33.401Z,48.39
2018-07-03T07:39:33.235Z,48.33
2018-07-03T07:40:33.383Z,48.28
2018-07-03T07:41:33.251Z,48.13
2018-07-03T07:42:33.468Z,48.25
2018-07-03T07:43:33.264Z,48.23
2018-07-03T07:44:33.224Z,48.27
2018-07-03T07:45:33.349Z,48.26
2018-07-03T07:46:33.305Z,48.33
2018-07-03T07:47:33.534Z,48.35
2018-07-03T07:48:33.437Z,48.25
2018-07-03T07:49:33.278Z,48.2
2018-07-03T07:50:33.422Z,48.37
2018-07-03T07:51:33.184Z,48.29
2018-07-03T07:52:33.262Z,48.24
2018-07-03T07:53:33.279Z,48.26
2018-07-03T07:54:33.191Z,48.3
2018-07-03T07:55:33.143Z,48.27
2018-07-03T07:56:33.390Z,48.27
2018-07-03T07:57:33.496Z,48.3
2018-07-03T07:58:33.221Z,48.22
2018-07-03T07:59:33.204Z,48.25
2018-07-03T08:00:33.320Z,48.34
2018-07-03T08:01:33.692Z,48.15
2018-07-03T08:02:33.467Z,48.19
2018-07-03T08:03:33.248Z,48.26
2018-07-03T08:04:33.156Z,48.26
2018-07-03T08:05:33.387Z,48.26
2018-07-03T08:06:33.216Z,48.19
2018-07-03T08:07:33.553Z,48.17
2018-07-03T08:08:33.208Z,48.17
2018-07-03T08:09:33.129Z,48.16
2018-07-03T08:10:33.219Z,48.13
2018-07-03T08:11:33.258Z,48.29
2018-07-03T08:12:33.327Z,48.33
2018-07-03T08:13:33.227Z,48.13
2018-07-03T08:14:33.533Z,48.21
2018-07-03T08:15:33.313Z,48.17
2018-07-03T08:16:33.218Z,48.26
2018-07-03T08:17:33.246Z,48.19
2018-07-03T08:18:33.234Z,48.23
2018-07-03T08:19:33.347Z,48.12
2018-07-03T08:20:33.217Z,48.2
2018-07-03T08:21:33.289Z,48.11
2018-07-03T08:22:43.332Z,48.24
2018-07-03T08:23:33.231Z,48.24
2018-07-03T08:24:33.292Z,48.17
2018-07-03T08:25:33.397Z,48.19
2018-07-03T08:26:33.424Z,48.19
2018-07-03T08:27:33.158Z,48.28
2018-07-03T08:28:33.307Z,48.09
2018-07-03T08:29:33.434Z,48.13
2018-07-03T08:30:33.373Z,48.2
2018-07-03T08:31:33.180Z,48.28
2018-07-03T08:32:33.339Z,48.19
2018-07-03T08:33:33.266Z,48.35
2018-07-03T08:34:33.411Z,48.19
2018-07-03T08:35:33.513Z,48.28
2018-07-03T08:36:33.254Z,48.25
2018-07-03T08:37:33.332Z,48.27
2018-07-03T08:38:33.280Z,48.24
2018-07-03T08:39:33.346Z,48.27
2018-07-03T08:40:33.298Z,48.2
2018-07-03T08:41:33.172Z,48.16
2018-07-03T08:42:33.201Z,48.21
2018-07-03T08:43:33.286Z,48.28
2018-07-03T08:44:33.191Z,48.19
2018-07-03T08:45:33.141Z,48.29
2018-07-03T08:46:33.289Z,48.25
2018-07-03T08:47:33.529Z,48.08
2018-07-03T08:48:33.447Z,48.22
2018-07-03T08:49:33.309Z,48.4
2018-07-03T08:50:33.249Z,48.26
2018-07-03T08:51:33.426Z,48.38
2018-07-03T08:52:33.377Z,48.22
2018-07-03T08:53:33.252Z,48.28
2018-07-03T08:54:33.158Z,48.22
2018-07-03T08:55:33.322Z,48.29
2018-07-03T08:56:33.316Z,48.26
2018-07-03T08:57:33.370Z,48.24
2018-07-03T08:58:33.197Z,48.29
2018-07-03T08:59:33.250Z,48.3
2018-07-03T09:00:33.440Z,48.31
2018-07-03T09:01:33.332Z,48.27
2018-07-03T09:02:33.190Z,48.25
2018-07-03T09:03:33.131Z,48.27
2018-07-03T09:04:33.246Z,48.26
2018-07-03T09:05:33.326Z,48.14
2018-07-03T09:06:33.259Z,48.27
2018-07-03T09:07:33.334Z,48.31
2018-07-03T09:08:33.207Z,48.16
2018-07-03T09:09:33.221Z,48.32
2018-07-03T09:10:33.116Z,48.31
2018-07-03T09:11:33.335Z,48.34
2018-07-03T09:12:33.153Z,48.24
2018-07-03T09:13:33.371Z,48.3
2018-07-03T09:14:33.342Z,48.22
2018-07-03T09:15:33.250Z,48.21
2018-07-03T09:16:33.140Z,48.11
2018-07-03T09:17:33.227Z,48.33
2018-07-03T09:18:33.361Z,48.31
2018-07-03T09:19:33.205Z,48.24
2018-07-03T09:20:33.183Z,48.36
2018-07-03T09:21:33.169Z,48.3
2018-07-03T09:22:33.378Z,48.25
2018-07-03T09:23:33.182Z,48.34
2018-07-03T09:24:33.186Z,48.28
2018-07-03T09:25:33.221Z,48.32
2018-07-03T09:26:33.369Z,48.4
2018-07-03T09:27:33.122Z,48.41
2018-07-03T09:28:33.336Z,48.23
2018-07-03T09:29:33.356Z,48.3
2018-07-03T09:30:33.215Z,48.31
2018-07-03T09:31:33.280Z,48.36
2018-07-03T09:32:33.123Z,48.2
2018-07-03T09:33:33.268Z,48.14
2018-07-03T09:34:33.224Z,48.38
2018-07-03T09:35:33.180Z,48.37
2018-07-03T09:36:33.367Z,48.34
2018-07-03T09:37:33.369Z,48.33
2018-07-03T09:38:33.248Z,48.33
2018-07-03T09:39:33.290Z,48.49
2018-07-03T09:40:33.223Z,48.29
2018-07-03T09:41:33.330Z,48.33
2018-07-03T09:42:33.433Z,48.37
2018-07-03T09:43:33.375Z,48.37
2018-07-03T09:44:33.262Z,48.33
2018-07-03T09:45:33.238Z,48.32
2018-07-03T09:46:33.363Z,48.34
2018-07-03T09:47:33.352Z,48.34
2018-07-03T09:48:33.202Z,48.44
2018-07-03T09:49:33.411Z,48.33
2018-07-03T09:50:33.234Z,48.35
2018-07-03T09:51:33.586Z,48.38
2018-07-03T09:52:33.205Z,48.31
2018-07-03T09:53:33.397Z,48.43
2018-07-03T09:54:33.257Z,48.36
2018-07-03T09:55:33.620Z,48.35
2018-07-03T09:56:33.313Z,48.32
2018-07-03T09:57:33.115Z,48.32
2018-07-03T09:58:33.235Z,48.33
2018-07-03T09:59:33.134Z,48.36
2018-07-03T10:00:33.275Z,48.38
2018-07-03T10:01:33.307Z,48.34
2018-07-03T10:02:33.214Z,48.34
2018-07-03T10:03:33.458Z,48.32
2018-07-03T10:04:33.337Z,48.29
2018-07-03T10:05:33.390Z,48.38
2018-07-03T10:06:33.201Z,48.24
2018-07-03T10:07:33.292Z,48.3
2018-07-03T10:08:33.132Z,48.3
2018-07-03T10:09:33.136Z,48.31
2018-07-03T10:10:35.019Z,48.29
2018-07-03T10:11:33.315Z,48.22
2018-07-03T10:12:33.228Z,48.29
2018-07-03T10:13:33.219Z,48.32
2018-07-03T10:14:33.200Z,48.38
2018-07-03T10:15:33.328Z,48.41
2018-07-03T10:16:33.255Z,48.35
2018-07-03T10:17:33.118Z,48.28
2018-07-03T10:18:33.236Z,48.29
2018-07-03T10:19:33.277Z,48.26
2018-07-03T10:20:33.246Z,48.32
2018-07-03T10:21:33.161Z,48.29
2018-07-03T10:22:33.277Z,48.35
2018-07-03T10:23:33.196Z,48.49
2018-07-03T10:24:33.188Z,48.41
2018-07-03T10:25:33.442Z,48.39
2018-07-03T10:27:03.671Z,48.33
2018-07-03T10:27:33.336Z,48.35
2018-07-03T10:28:33.178Z,48.36
2018-07-03T10:29:33.128Z,48.34
2018-07-03T10:30:33.445Z,48.52
2018-07-03T10:31:33.104Z,48.41
2018-07-03T10:32:33.093Z,48.26
2018-07-03T10:33:33.328Z,48.3
2018-07-03T10:34:33.269Z,48.3
2018-07-03T10:35:33.254Z,48.45
2018-07-03T10:36:33.197Z,48.38
2018-07-03T10:37:33.227Z,48.35
2018-07-03T10:38:33.192Z,48.39
2018-07-03T10:39:33.270Z,48.38
2018-07-03T10:40:33.057Z,48.32
2018-07-03T10:41:33.214Z,48.4
2018-07-03T10:42:33.282Z,48.24
2018-07-03T10:43:33.249Z,48.4
2018-07-03T10:44:33.157Z,48.29
2018-07-03T10:45:33.127Z,48.38
2018-07-03T10:46:33.347Z,48.35
2018-07-03T10:47:33.333Z,48.36
2018-07-03T10:48:33.156Z,48.46
2018-07-03T10:49:33.107Z,48.33
2018-07-03T10:50:33.187Z,48.43
2018-07-03T10:51:33.056Z,48.43
2018-07-03T10:52:33.342Z,48.45
2018-07-03T10:53:33.175Z,48.49
2018-07-03T10:54:33.238Z,48.53
2018-07-03T10:55:33.236Z,48.49
2018-07-03T10:56:33.377Z,48.46
2018-07-03T10:57:33.365Z,48.49
2018-07-03T10:58:33.095Z,48.32
2018-07-03T10:59:33.502Z,48.38
2018-07-03T11:00:33.324Z,48.38
2018-07-03T11:01:33.148Z,48.34
2018-07-03T11:02:33.114Z,48.5
2018-07-03T11:03:33.433Z,48.38
2018-07-03T11:04:33.329Z,48.35
2018-07-03T11:05:33.481Z,48.35
2018-07-03T11:06:33.421Z,48.3
2018-07-03T11:07:33.101Z,48.38
2018-07-03T11:08:33.174Z,48.42
2018-07-03T11:09:33.181Z,48.26
2018-07-03T11:10:33.397Z,48.41
2018-07-03T11:11:33.341Z,48.41
2018-07-03T11:12:33.239Z,48.35
2018-07-03T11:13:33.247Z,48.42
2018-07-03T11:14:33.353Z,48.44
2018-07-03T11:15:33.237Z,48.43
2018-07-03T11:16:33.226Z,48.37
2018-07-03T11:17:33.373Z,48.51
2018-07-03T11:18:33.321Z,48.39
2018-07-03T11:19:33.345Z,48.41
2018-07-03T11:20:33.363Z,48.32
2018-07-03T11:21:33.164Z,48.36
2018-07-03T11:22:33.311Z,48.3
2018-07-03T11:23:33.424Z,48.54
2018-07-03T11:24:33.345Z,48.4
2018-07-03T11:25:33.310Z,48.44
2018-07-03T11:26:33.519Z,48.42
2018-07-03T11:27:33.407Z,48.33
2018-07-03T11:28:33.614Z,48.4
2018-07-03T11:29:33.160Z,48.51
2018-07-03T11:30:33.398Z,48.43
2018-07-03T11:31:33.225Z,48.34
2018-07-03T11:32:33.328Z,48.3
2018-07-03T11:33:33.379Z,48.44
2018-07-03T11:34:33.175Z,48.41
2018-07-03T11:35:33.388Z,48.36
2018-07-03T11:36:33.322Z,48.35
2018-07-03T11:37:33.124Z,48.41
2018-07-03T11:38:33.253Z,48.43
2018-07-03T11:39:33.343Z,48.46
2018-07-03T11:40:33.369Z,48.36
2018-07-03T11:41:33.236Z,48.4
2018-07-03T11:42:33.258Z,48.55
2018-07-03T11:43:33.246Z,48.76
2018-07-03T11:44:33.239Z,48.57
2018-07-03T11:45:33.153Z,48.52
2018-07-03T11:46:33.384Z,48.58
2018-07-03T11:47:33.428Z,48.41
2018-07-03T11:48:33.215Z,48.32
2018-07-03T11:49:33.274Z,48.29
2018-07-03T11:50:33.340Z,48.45
2018-07-03T11:51:33.392Z,48.36
2018-07-03T11:52:33.185Z,48.39
2018-07-03T11:53:33.479Z,48.42
2018-07-03T11:54:33.270Z,48.39
2018-07-03T11:55:33.235Z,48.29
2018-07-03T11:56:33.152Z,48.34
2018-07-03T11:57:33.291Z,48.41
2018-07-03T11:58:33.403Z,48.43
2018-07-03T11:59:33.250Z,48.39
2018-07-03T12:00:33.396Z,48.3
2018-07-03T12:01:33.317Z,48.36
2018-07-03T12:02:33.234Z,48.36
2018-07-03T12:03:33.205Z,48.28
2018-07-03T12:04:33.250Z,48.44
2018-07-03T12:05:33.228Z,48.44
2018-07-03T12:06:33.388Z,48.14
2018-07-03T12:07:33.205Z,48.38
2018-07-03T12:08:33.277Z,48.39
2018-07-03T12:09:33.256Z,48.33
2018-07-03T12:10:33.253Z,48.33
2018-07-03T12:11:33.081Z,48.43
2018-07-03T12:12:33.041Z,48.42
2018-07-03T12:13:33.258Z,48.38
2018-07-03T12:14:33.132Z,48.38
2018-07-03T12:15:33.562Z,48.32
2018-07-03T12:16:33.357Z,48.43
2018-07-03T12:17:33.287Z,48.34
2018-07-03T12:18:33.286Z,48.32
2018-07-03T12:19:33.367Z,48.32
2018-07-03T12:20:33.196Z,48.33
2018-07-03T12:21:33.255Z,48.36
2018-07-03T12:22:33.331Z,48.32
2018-07-03T12:23:33.392Z,48.38
2018-07-03T12:24:33.097Z,48.38
2018-07-03T12:25:33.249Z,48.32
2018-07-03T12:26:33.243Z,48.41
2018-07-03T12:27:33.174Z,48.37
2018-07-03T12:28:33.122Z,48.41
2018-07-03T12:29:33.138Z,48.29
2018-07-03T12:30:33.280Z,48.38
2018-07-03T12:31:33.096Z,48.43
2018-07-03T12:32:33.289Z,48.5
2018-07-03T12:33:33.132Z,48.4
2018-07-03T12:34:33.452Z,48.47
2018-07-03T12:35:33.396Z,48.51
2018-07-03T12:36:33.112Z,48.45
2018-07-03T12:37:43.108Z,48.3
2018-07-03T12:38:33.257Z,48.4
2018-07-03T12:39:33.221Z,48.4
2018-07-03T12:40:33.394Z,48.5
2018-07-03T12:41:33.146Z,48.34
2018-07-03T12:42:33.061Z,48.44
2018-07-03T12:43:33.318Z,48.39
2018-07-03T12:44:33.068Z,48.33
2018-07-03T12:45:33.097Z,48.31
2018-07-03T12:46:33.262Z,48.43
2018-07-03T12:47:33.219Z,48.49
2018-07-03T12:48:33.217Z,48.46
2018-07-03T12:49:33.267Z,48.44
2018-07-03T12:50:33.321Z,48.41
2018-07-03T12:51:33.197Z,48.41
2018-07-03T12:52:33.105Z,48.46
2018-07-03T12:53:33.230Z,48.4
2018-07-03T12:54:33.224Z,48.43
2018-07-03T12:55:33.367Z,48.49